createdAt,value
2023-04-11T00:01:34.785Z,17.05
2023-04-11T00:04:02.375Z,16.35
2023-04-11T00:06:29.766Z,16.98
2023-04-11T00:08:57.434Z,11.85
2023-04-11T00:11:25.072Z,13.68
2023-04-11T00:13:53.329Z,13.50
2023-04-11T00:16:20.623Z,18.88
2023-04-11T00:18:48.304Z,14.00
2023-04-11T00:21:15.472Z,17.38
2023-04-11T00:23:42.778Z,13.65
2023-04-11T00:26:10.026Z,12.52
2023-04-11T00:28:38.950Z,13.90
2023-04-11T00:31:07.248Z,19.60
2023-04-11T00:33:35.514Z,13.25
2023-04-11T00:36:02.753Z,20.25
2023-04-11T00:38:30.132Z,17.08
2023-04-11T00:40:57.531Z,25.50
2023-04-11T00:43:24.835Z,15.60
2023-04-11T00:45:52.180Z,17.38
2023-04-11T00:48:19.853Z,16.35
2023-04-11T00:50:47.056Z,17.55
2023-04-11T00:53:14.961Z,13.95
2023-04-11T00:55:42.269Z,21.08
2023-04-11T00:58:09.652Z,16.63
2023-04-11T01:00:38.782Z,18.55
2023-04-11T01:03:06.960Z,19.83
2023-04-11T01:05:35.796Z,15.82
2023-04-11T01:08:03.379Z,19.38
2023-04-11T01:10:33.129Z,17.35
2023-04-11T01:13:01.272Z,13.65
2023-04-11T01:15:28.798Z,19.42
2023-04-11T01:17:58.105Z,20.42
2023-04-11T01:20:26.639Z,19.55
2023-04-11T01:22:56.966Z,12.93
2023-04-11T01:25:25.200Z,14.98
2023-04-11T01:27:52.428Z,14.93
2023-04-11T01:30:19.804Z,17.80
2023-04-11T01:32:50.630Z,22.50
2023-04-11T01:35:19.241Z,17.17
2023-04-11T01:37:46.537Z,14.57
2023-04-11T01:40:17.206Z,18.25
2023-04-11T01:42:46.152Z,16.88
2023-04-11T01:45:13.431Z,13.93
2023-04-11T01:47:41.154Z,12.98
2023-04-11T01:50:08.804Z,19.25
2023-04-11T01:52:36.630Z,15.13
2023-04-11T01:55:04.128Z,16.77
2023-04-11T01:57:32.086Z,16.77
2023-04-11T01:59:59.372Z,15.30
2023-04-11T02:02:26.848Z,13.52
2023-04-11T02:04:54.122Z,26.02
2023-04-11T02:07:21.343Z,19.65
2023-04-11T02:09:48.662Z,16.27
2023-04-11T02:12:16.035Z,15.93
2023-04-11T02:14:45.185Z,24.33
2023-04-11T02:17:14.309Z,22.90
2023-04-11T02:19:41.554Z,23.52
2023-04-11T02:22:09.376Z,20.27
2023-04-11T02:24:36.580Z,19.80
2023-04-11T02:27:04.379Z,16.40
2023-04-11T02:29:31.561Z,22.73
2023-04-11T02:31:59.012Z,14.70
2023-04-11T02:34:26.897Z,18.65
2023-04-11T02:36:55.843Z,22.08
2023-04-11T02:39:24.276Z,19.38
2023-04-11T02:41:51.524Z,17.85
2023-04-11T02:44:19.784Z,24.63
2023-04-11T02:46:47.567Z,16.05
2023-04-11T02:49:15.266Z,29.27
2023-04-11T02:51:44.649Z,20.83
2023-04-11T02:54:12.882Z,27.17
2023-04-11T02:56:40.413Z,24.02
2023-04-11T02:59:07.745Z,21.92
2023-04-11T03:01:37.844Z,17.58
2023-04-11T03:04:05.694Z,18.67
2023-04-11T03:06:43.603Z,25.85
2023-04-11T03:09:11.836Z,29.20
2023-04-11T03:11:39.029Z,26.13
2023-04-11T03:14:06.588Z,24.92
2023-04-11T03:16:34.204Z,27.10
2023-04-11T03:19:01.483Z,23.42
2023-04-11T03:21:28.784Z,20.98
2023-04-11T03:23:55.957Z,25.42
2023-04-11T03:26:27.314Z,26.58
2023-04-11T03:28:59.291Z,19.48
2023-04-11T03:31:31.686Z,26.77
2023-04-11T03:33:59.384Z,27.80
2023-04-11T03:36:27.230Z,20.45
2023-04-11T03:38:55.098Z,16.42
2023-04-11T03:41:22.670Z,20.77
2023-04-11T03:43:52.111Z,24.30
2023-04-11T03:46:21.830Z,17.98
2023-04-11T03:48:49.183Z,25.23
2023-04-11T03:51:18.479Z,22.50
2023-04-11T03:53:52.728Z,21.17
2023-04-11T03:56:25.687Z,16.27
2023-04-11T03:58:53.750Z,23.65
2023-04-11T04:01:24.485Z,22.40
2023-04-11T04:03:55.080Z,16.70
2023-04-11T04:06:22.583Z,17.48
2023-04-11T04:08:50.353Z,22.73
2023-04-11T04:11:19.515Z,24.35
2023-04-11T04:13:47.483Z,19.90
2023-04-11T04:16:17.960Z,23.77
2023-04-11T04:18:51.782Z,24.45
2023-04-11T04:21:21.902Z,26.00
2023-04-11T04:23:54.444Z,17.40
2023-04-11T04:26:30.056Z,18.10
2023-04-11T04:29:10.717Z,15.60
2023-04-11T04:31:41.190Z,23.15
2023-04-11T04:34:08.952Z,21.20
2023-04-11T04:36:56.553Z,19.05
2023-04-11T04:39:38.250Z,21.00
2023-04-11T04:42:07.973Z,21.92
2023-04-11T04:44:39.525Z,21.30
2023-04-11T04:47:15.893Z,21.95
2023-04-11T04:49:44.913Z,15.07
2023-04-11T04:52:13.960Z,23.55
2023-04-11T04:54:41.732Z,27.48
2023-04-11T04:57:09.034Z,26.48
2023-04-11T04:59:36.487Z,20.88
2023-04-11T05:02:11.572Z,28.90
2023-04-11T05:04:42.102Z,23.45
2023-04-11T05:07:11.062Z,23.67
2023-04-11T05:09:38.363Z,21.60
2023-04-11T05:12:14.070Z,31.75
2023-04-11T05:14:42.477Z,21.20
2023-04-11T05:17:09.960Z,26.13
2023-04-11T05:19:37.224Z,19.55
2023-04-11T05:22:04.716Z,19.63
2023-04-11T05:24:37.311Z,25.38
2023-04-11T05:27:08.404Z,19.95
2023-04-11T05:29:35.752Z,25.25
2023-04-11T05:32:03.352Z,21.23
2023-04-11T05:34:33.003Z,24.00
2023-04-11T05:37:01.793Z,27.20
2023-04-11T05:39:29.047Z,29.75
2023-04-11T05:41:57.210Z,30.98
2023-04-11T05:44:24.412Z,25.20
2023-04-11T05:46:51.568Z,24.77
2023-04-11T05:49:18.855Z,26.73
2023-04-11T05:51:46.001Z,25.02
2023-04-11T05:54:31.466Z,18.73
2023-04-11T05:56:58.798Z,31.23
2023-04-11T05:59:28.333Z,24.90
2023-04-11T06:01:56.987Z,27.17
2023-04-11T06:04:24.761Z,23.85
2023-04-11T06:06:53.668Z,36.90
2023-04-11T06:09:21.242Z,32.08
2023-04-11T06:11:48.424Z,20.35
2023-04-11T06:14:15.648Z,23.10
2023-04-11T06:16:43.033Z,28.23
2023-04-11T06:19:10.145Z,27.80
2023-04-11T06:21:37.603Z,24.92
2023-04-11T06:24:09.106Z,23.40
2023-04-11T06:26:36.648Z,22.42
2023-04-11T06:29:06.544Z,17.13
2023-04-11T06:31:34.495Z,26.80
2023-04-11T06:34:02.189Z,22.85
2023-04-11T06:36:31.498Z,20.63
2023-04-11T06:38:58.754Z,26.52
2023-04-11T06:41:25.963Z,24.75
2023-04-11T06:43:53.142Z,25.83
2023-04-11T06:46:20.508Z,30.05
2023-04-11T06:48:47.690Z,28.00
2023-04-11T06:51:14.914Z,18.38
2023-04-11T06:53:42.181Z,27.45
2023-04-11T06:56:10.586Z,25.15
2023-04-11T06:58:37.789Z,23.48
2023-04-11T07:01:05.239Z,18.63
2023-04-11T07:03:32.638Z,28.27
2023-04-11T07:05:59.976Z,26.65
2023-04-11T07:08:27.216Z,32.58
2023-04-11T07:10:54.580Z,27.20
2023-04-11T07:13:22.121Z,29.83
2023-04-11T07:15:49.417Z,26.90
2023-04-11T07:18:16.688Z,27.20
2023-04-11T07:20:43.987Z,29.75
2023-04-11T07:23:11.166Z,25.27
2023-04-11T07:25:39.531Z,32.03
2023-04-11T07:28:07.495Z,32.92
2023-04-11T07:30:36.376Z,22.60
2023-04-11T07:33:04.339Z,24.05
2023-04-11T07:35:33.847Z,23.83
2023-04-11T07:38:01.729Z,24.27
2023-04-11T07:40:29.050Z,24.30
2023-04-11T07:42:56.457Z,22.58
2023-04-11T07:45:23.853Z,29.33
2023-04-11T07:47:51.115Z,25.13
2023-04-11T07:50:18.329Z,32.28
2023-04-11T07:52:45.521Z,30.33
2023-04-11T07:55:12.742Z,34.05
2023-04-11T07:57:39.880Z,27.77
2023-04-11T08:00:11.663Z,32.25
2023-04-11T08:02:39.973Z,23.90
2023-04-11T08:05:10.052Z,25.13
2023-04-11T08:07:37.278Z,29.42
2023-04-11T08:10:05.628Z,23.15
2023-04-11T08:12:32.816Z,31.65
2023-04-11T08:15:00.816Z,27.45
2023-04-11T08:17:29.484Z,31.75
2023-04-11T08:19:57.960Z,27.98
2023-04-11T08:22:25.180Z,26.95
2023-04-11T08:24:52.841Z,20.38
2023-04-11T08:27:20.173Z,27.15
2023-04-11T08:29:47.398Z,29.88
2023-04-11T08:32:14.635Z,22.27
2023-04-11T08:34:41.841Z,31.48
2023-04-11T08:37:08.954Z,28.58
2023-04-11T08:39:36.257Z,27.10
2023-04-11T08:42:04.065Z,25.55
2023-04-11T08:44:31.322Z,35.80
2023-04-11T08:46:58.696Z,32.55
2023-04-11T08:49:26.056Z,28.88
2023-04-11T08:51:56.425Z,22.40
2023-04-11T08:54:23.641Z,24.95
2023-04-11T08:56:50.940Z,23.30
2023-04-11T08:59:18.193Z,27.08
2023-04-11T09:01:45.458Z,29.42
2023-04-11T09:04:12.905Z,28.05
2023-04-11T09:06:40.488Z,27.80
2023-04-11T09:09:09.098Z,21.63
2023-04-11T09:11:52.052Z,24.42
2023-04-11T09:14:24.499Z,23.42
2023-04-11T09:16:54.822Z,28.33
2023-04-11T09:19:24.700Z,22.98
2023-04-11T09:21:53.250Z,25.08
2023-04-11T09:24:20.436Z,20.65
2023-04-11T09:26:47.674Z,25.33
2023-04-11T09:29:37.204Z,20.63
2023-04-11T09:32:04.710Z,29.02
2023-04-11T09:34:33.296Z,25.58
2023-04-11T09:37:01.715Z,26.83
2023-04-11T09:39:29.655Z,22.20
2023-04-11T09:41:57.450Z,18.83
2023-04-11T09:44:37.781Z,21.95
2023-04-11T09:47:05.338Z,23.30
2023-04-11T09:49:35.093Z,21.80
2023-04-11T09:52:03.347Z,16.30
2023-04-11T09:54:32.105Z,12.95
2023-04-11T09:56:59.916Z,18.63
2023-04-11T09:59:27.840Z,20.13
2023-04-11T10:01:57.738Z,24.58
2023-04-11T10:04:28.196Z,20.42
2023-04-11T10:07:05.735Z,16.98
2023-04-11T10:09:33.570Z,16.63
2023-04-11T10:12:00.855Z,16.70
2023-04-11T10:14:31.684Z,17.65
2023-04-11T10:17:11.392Z,15.27
2023-04-11T10:19:38.686Z,18.35
2023-04-11T10:22:05.883Z,17.10
2023-04-11T10:24:33.087Z,19.42
2023-04-11T10:27:03.942Z,18.10
2023-04-11T10:29:52.041Z,14.00
2023-04-11T10:32:21.655Z,18.55
2023-04-11T10:35:08.958Z,17.63
2023-04-11T10:37:37.463Z,17.20
2023-04-11T10:40:10.104Z,16.63
2023-04-11T10:42:39.976Z,16.48
2023-04-11T10:45:10.164Z,17.33
2023-04-11T10:47:37.351Z,17.10
2023-04-11T10:50:19.070Z,16.52
2023-04-11T10:52:46.386Z,23.70
2023-04-11T10:55:17.337Z,21.77
2023-04-11T10:57:47.585Z,17.48
2023-04-11T11:00:16.716Z,16.48
2023-04-11T11:02:44.254Z,17.35
2023-04-11T11:05:14.856Z,18.05
2023-04-11T11:07:47.753Z,18.52
2023-04-11T11:10:16.304Z,16.90
2023-04-11T11:12:52.697Z,19.83
2023-04-11T11:15:19.982Z,21.58
2023-04-11T11:17:47.665Z,21.40
2023-04-11T11:20:19.713Z,14.30
2023-04-11T11:22:49.958Z,18.33
2023-04-11T11:25:17.185Z,18.15
2023-04-11T11:27:44.342Z,15.60
2023-04-11T11:30:12.422Z,22.27
2023-04-11T11:32:39.587Z,17.90
2023-04-11T11:35:10.143Z,20.58
2023-04-11T11:37:37.479Z,20.58
2023-04-11T11:40:09.469Z,21.98
2023-04-11T11:42:37.385Z,18.17
2023-04-11T11:45:08.196Z,14.35
2023-04-11T11:47:38.464Z,19.75
2023-04-11T11:50:07.227Z,15.40
2023-04-11T11:52:37.753Z,12.77
2023-04-11T11:55:10.369Z,24.48
2023-04-11T11:57:43.745Z,19.33
2023-04-11T12:00:11.925Z,15.07
2023-04-11T12:02:42.218Z,17.60
2023-04-11T12:05:12.173Z,17.40
2023-04-11T12:07:39.789Z,14.45
2023-04-11T12:10:11.863Z,20.77
2023-04-11T12:12:42.083Z,15.00
2023-04-11T12:15:12.139Z,16.63
2023-04-11T12:17:40.849Z,13.10
2023-04-11T12:20:10.703Z,14.90
2023-04-11T12:22:38.480Z,22.88
2023-04-11T12:25:06.954Z,18.45
2023-04-11T12:27:35.122Z,15.98
2023-04-11T12:30:02.560Z,15.30
2023-04-11T12:32:30.115Z,10.93
2023-04-11T12:34:57.265Z,19.70
2023-04-11T12:37:24.435Z,14.88
2023-04-11T12:39:51.725Z,12.38
2023-04-11T12:42:23.696Z,15.23
2023-04-11T12:44:51.951Z,16.05
2023-04-11T12:47:19.133Z,12.73
2023-04-11T12:49:46.503Z,19.48
2023-04-11T12:52:13.694Z,11.27
2023-04-11T12:54:41.192Z,11.98
2023-04-11T12:57:08.415Z,12.40
2023-04-11T12:59:35.693Z,14.05
2023-04-11T13:02:03.249Z,13.77
2023-04-11T13:04:30.890Z,17.77
2023-04-11T13:07:01.554Z,16.95
2023-04-11T13:09:29.804Z,14.93
2023-04-11T13:11:58.184Z,14.77
2023-04-11T13:14:25.469Z,13.32
2023-04-11T13:16:52.660Z,13.38
2023-04-11T13:19:21.064Z,13.43
2023-04-11T13:21:48.747Z,15.85
2023-04-11T13:24:16.594Z,12.48
2023-04-11T13:26:45.109Z,13.02
2023-04-11T13:29:12.619Z,13.13
2023-04-11T13:31:39.996Z,13.70
2023-04-11T13:34:07.228Z,14.18
2023-04-11T13:36:34.461Z,13.98
2023-04-11T13:39:01.704Z,12.50
2023-04-11T13:41:28.810Z,13.13
2023-04-11T13:43:56.075Z,14.23
2023-04-11T13:46:23.407Z,13.32
2023-04-11T13:48:50.592Z,12.32
2023-04-11T13:51:17.874Z,13.05
2023-04-11T13:53:45.088Z,10.23
2023-04-11T13:56:12.188Z,13.65
2023-04-11T13:58:39.459Z,12.23
2023-04-11T14:01:07.013Z,16.77
2023-04-11T14:03:34.695Z,16.80
2023-04-11T14:06:03.287Z,12.52
2023-04-11T14:08:31.269Z,13.77
2023-04-11T14:10:58.392Z,13.50
2023-04-11T14:13:25.629Z,13.43
2023-04-11T14:16:05.376Z,15.40
2023-04-11T14:18:35.008Z,16.13
2023-04-11T14:21:02.469Z,18.52
2023-04-11T14:23:30.096Z,14.38
2023-04-11T14:25:57.368Z,13.30
2023-04-11T14:28:26.499Z,15.25
2023-04-11T14:30:54.346Z,10.82
2023-04-11T14:33:21.706Z,18.02
2023-04-11T14:35:50.596Z,16.73
2023-04-11T14:38:17.921Z,12.23
2023-04-11T14:40:45.202Z,15.75
2023-04-11T14:43:12.530Z,13.65
2023-04-11T14:45:39.709Z,13.50
2023-04-11T14:48:07.101Z,9.27
2023-04-11T14:50:34.435Z,15.85
2023-04-11T14:53:01.759Z,14.57
2023-04-11T14:55:28.992Z,11.50
2023-04-11T14:57:56.650Z,17.38
2023-04-11T15:00:25.076Z,16.95
2023-04-11T15:02:54.465Z,15.68
2023-04-11T15:05:23.360Z,12.40
2023-04-11T15:07:52.795Z,11.38
2023-04-11T15:10:22.933Z,15.63
2023-04-11T15:12:50.193Z,12.07
2023-04-11T15:15:17.426Z,12.73
2023-04-11T15:17:47.427Z,13.52
2023-04-11T15:20:15.133Z,9.98
2023-04-11T15:22:44.970Z,12.38
2023-04-11T15:25:15.028Z,13.15
2023-04-11T15:27:43.260Z,11.90
2023-04-11T15:30:11.472Z,13.05
2023-04-11T15:32:44.078Z,14.00
2023-04-11T15:35:11.620Z,11.30
2023-04-11T15:37:38.770Z,14.07
2023-04-11T15:40:06.845Z,13.98
2023-04-11T15:42:35.656Z,15.93
2023-04-11T15:45:03.549Z,11.20
2023-04-11T15:47:31.578Z,13.63
2023-04-11T15:50:01.909Z,10.65
2023-04-11T15:52:29.068Z,15.60
2023-04-11T15:54:57.235Z,14.05
2023-04-11T15:57:24.495Z,11.40
2023-04-11T15:59:51.650Z,13.27
2023-04-11T16:02:18.900Z,11.23
2023-04-11T16:04:47.961Z,11.15
2023-04-11T16:07:18.546Z,12.13
2023-04-11T16:09:46.829Z,9.98
2023-04-11T16:12:14.358Z,13.95
2023-04-11T16:14:41.638Z,17.90
2023-04-11T16:17:08.806Z,12.75
2023-04-11T16:19:36.057Z,11.32
2023-04-11T16:22:03.264Z,11.18
2023-04-11T16:24:30.623Z,10.30
2023-04-11T16:26:57.763Z,12.98
2023-04-11T16:29:25.391Z,16.33
2023-04-11T16:31:52.722Z,14.82
2023-04-11T16:34:20.054Z,17.25
2023-04-11T16:36:47.635Z,12.90
2023-04-11T16:39:14.864Z,9.77
2023-04-11T16:41:41.996Z,12.75
2023-04-11T16:44:11.576Z,15.48
2023-04-11T16:46:39.703Z,14.05
2023-04-11T16:49:07.566Z,11.88
2023-04-11T16:51:36.659Z,10.40
2023-04-11T16:54:09.468Z,11.20
2023-04-11T16:56:37.562Z,11.85
2023-04-11T16:59:05.415Z,13.27
2023-04-11T17:01:32.787Z,12.48
2023-04-11T17:04:01.946Z,13.23
2023-04-11T17:06:29.462Z,11.98
2023-04-11T17:08:57.847Z,13.23
2023-04-11T17:11:25.914Z,13.43
2023-04-11T17:13:55.091Z,12.68
2023-04-11T17:16:22.832Z,11.10
2023-04-11T17:18:50.016Z,10.57
2023-04-11T17:21:18.068Z,14.00
2023-04-11T17:23:46.427Z,13.50
2023-04-11T17:26:13.955Z,9.25
2023-04-11T17:28:42.382Z,12.45
2023-04-11T17:31:13.054Z,13.40
2023-04-11T17:33:41.306Z,11.80
2023-04-11T17:36:09.864Z,12.30
2023-04-11T17:38:38.605Z,13.82
2023-04-11T17:41:14.340Z,12.38
2023-04-11T17:43:42.001Z,14.60
2023-04-11T17:46:09.568Z,19.15
2023-04-11T17:48:37.026Z,17.10
2023-04-11T17:51:06.146Z,17.42
2023-04-11T17:53:33.977Z,12.25
2023-04-11T17:56:04.607Z,12.15
2023-04-11T17:58:32.176Z,14.88
2023-04-11T18:00:59.801Z,14.18
2023-04-11T18:03:27.417Z,11.43
2023-04-11T18:05:55.053Z,15.57
2023-04-11T18:08:36.163Z,15.90
2023-04-11T18:11:11.025Z,12.80
2023-04-11T18:13:39.637Z,15.70
2023-04-11T18:16:06.954Z,13.75
2023-04-11T18:18:34.122Z,13.68
2023-04-11T18:21:06.555Z,16.60
2023-04-11T18:23:35.083Z,12.80
2023-04-11T18:26:02.333Z,12.07
2023-04-11T18:28:29.744Z,11.63
2023-04-11T18:30:57.005Z,12.63
2023-04-11T18:33:24.334Z,13.50
2023-04-11T18:35:51.897Z,16.13
2023-04-11T18:38:19.363Z,13.30
2023-04-11T18:40:46.872Z,13.07
2023-04-11T18:43:15.882Z,13.18
2023-04-11T18:45:44.192Z,16.02
2023-04-11T18:48:12.396Z,11.95
2023-04-11T18:50:43.096Z,15.80
2023-04-11T18:53:13.956Z,13.88
2023-04-11T18:55:41.609Z,12.75
2023-04-11T18:58:09.867Z,15.63
2023-04-11T19:00:39.463Z,16.00
2023-04-11T19:03:15.540Z,19.45
2023-04-11T19:05:44.226Z,14.82
2023-04-11T19:08:12.405Z,14.35
2023-04-11T19:10:39.742Z,18.33
2023-04-11T19:13:07.217Z,14.00
2023-04-11T19:15:34.572Z,16.50
2023-04-11T19:18:02.094Z,13.20
2023-04-11T19:20:29.720Z,18.95
2023-04-11T19:22:57.265Z,16.65
2023-04-11T19:25:25.071Z,17.95
2023-04-11T19:27:52.532Z,18.45
2023-04-11T19:30:19.948Z,16.88
2023-04-11T19:32:49.013Z,18.75
2023-04-11T19:35:21.387Z,16.70
2023-04-11T19:37:48.841Z,18.27
2023-04-11T19:40:18.439Z,18.15
2023-04-11T19:42:46.002Z,17.95
2023-04-11T19:45:13.196Z,15.77
2023-04-11T19:47:41.771Z,17.77
2023-04-11T19:50:13.340Z,15.63
2023-04-11T19:52:42.507Z,14.20
2023-04-11T19:55:11.313Z,19.15
2023-04-11T19:57:39.092Z,17.08
2023-04-11T20:00:12.369Z,18.45
2023-04-11T20:02:44.922Z,16.58
2023-04-11T20:05:16.280Z,19.23
2023-04-11T20:07:44.090Z,16.13
2023-04-11T20:10:12.814Z,18.15
2023-04-11T20:12:40.400Z,18.42
2023-04-11T20:15:08.425Z,18.83
2023-04-11T20:17:35.940Z,21.20
2023-04-11T20:20:06.616Z,19.83
2023-04-11T20:22:33.908Z,20.15
2023-04-11T20:25:01.119Z,21.75
2023-04-11T20:27:28.442Z,16.27
2023-04-11T20:29:56.808Z,15.48
2023-04-11T20:32:24.214Z,17.52
2023-04-11T20:34:51.554Z,18.27
2023-04-11T20:37:19.652Z,16.23
2023-04-11T20:39:46.976Z,19.85
2023-04-11T20:42:14.143Z,25.73
2023-04-11T20:44:41.790Z,18.00
2023-04-11T20:47:09.268Z,15.13
2023-04-11T20:49:36.516Z,27.20
2023-04-11T20:52:03.829Z,25.00
2023-04-11T20:54:31.058Z,20.65
2023-04-11T20:56:58.263Z,17.90
2023-04-11T20:59:26.371Z,19.35
2023-04-11T21:01:53.931Z,19.85
2023-04-11T21:04:22.518Z,17.45
2023-04-11T21:06:50.728Z,20.40
2023-04-11T21:09:18.602Z,17.20
2023-04-11T21:11:45.840Z,20.42
2023-04-11T21:14:12.969Z,18.33
2023-04-11T21:16:40.173Z,20.90
2023-04-11T21:19:07.381Z,21.08
2023-04-11T21:21:34.663Z,21.10
2023-04-11T21:24:03.637Z,27.65
2023-04-11T21:26:31.568Z,13.52
2023-04-11T21:28:58.701Z,19.83
2023-04-11T21:31:26.050Z,20.75
2023-04-11T21:33:53.176Z,13.23
2023-04-11T21:36:20.482Z,20.52
2023-04-11T21:38:47.596Z,15.88
2023-04-11T21:41:14.816Z,20.17
2023-04-11T21:43:41.949Z,14.88
2023-04-11T21:46:09.236Z,25.38
2023-04-11T21:48:36.722Z,18.92
2023-04-11T21:51:04.170Z,18.52
2023-04-11T21:53:31.304Z,16.42
2023-04-11T21:55:58.637Z,20.10
2023-04-11T21:58:29.810Z,17.73
2023-04-11T22:00:57.413Z,19.50
2023-04-11T22:03:24.960Z,22.17
2023-04-11T22:05:53.292Z,21.27
2023-04-11T22:08:22.564Z,23.60
2023-04-11T22:10:50.942Z,24.25
2023-04-11T22:13:19.505Z,24.05
2023-04-11T22:15:48.922Z,17.45
2023-04-11T22:18:16.249Z,20.63
2023-04-11T22:20:44.406Z,19.27
2023-04-11T22:23:12.978Z,20.40
2023-04-11T22:25:42.838Z,19.15
2023-04-11T22:28:15.698Z,21.88
2023-04-11T22:30:44.181Z,21.73
2023-04-11T22:33:13.713Z,14.80
2023-04-11T22:35:44.061Z,22.42
2023-04-11T22:38:11.646Z,19.17
2023-04-11T22:40:40.356Z,18.23
2023-04-11T22:43:07.483Z,25.33
2023-04-11T22:45:36.057Z,20.40
2023-04-11T22:48:04.694Z,20.30
2023-04-11T22:50:32.906Z,20.55
2023-04-11T22:53:02.155Z,25.02
2023-04-11T22:55:34.489Z,21.00
2023-04-11T22:58:02.833Z,26.80
2023-04-11T23:00:30.446Z,22.25
2023-04-11T23:02:59.972Z,22.67
2023-04-11T23:05:27.235Z,18.40
2023-04-11T23:07:54.360Z,20.65
2023-04-11T23:10:21.424Z,20.65
2023-04-11T23:12:49.669Z,21.17
2023-04-11T23:15:17.488Z,23.83
2023-04-11T23:17:44.994Z,15.70
2023-04-11T23:20:13.854Z,17.40
2023-04-11T23:22:43.247Z,18.77
2023-04-11T23:25:11.851Z,23.52
2023-04-11T23:27:39.782Z,15.55
2023-04-11T23:30:07.822Z,18.95
2023-04-11T23:32:35.206Z,22.55
2023-04-11T23:35:04.723Z,18.75
2023-04-11T23:37:32.251Z,18.00
2023-04-11T23:39:59.646Z,18.30
2023-04-11T23:42:26.887Z,18.17
2023-04-11T23:44:54.081Z,18.50
2023-04-11T23:47:21.360Z,27.05
2023-04-11T23:49:48.542Z,22.73
2023-04-11T23:52:15.741Z,23.05
2023-04-11T23:54:43.522Z,18.65
2023-04-11T23:57:10.812Z,20.58
2023-04-11T23:59:37.950Z,24.38
